sensor_id;sensor_type;location;lat;lon;timestamp;P1;durP1;ratioP1;P2;durP2;ratioP2
21848;SDS011;11089;49.852;19.700;2023-11-19T00:00:15;42.28;;;16.25;;
21848;SDS011;11089;49.852;19.700;2023-11-19T00:03:16;40.28;;;16.58;;
21848;SDS011;11089;49.852;19.700;2023-11-19T00:06:18;38.75;;;15.88;;
21848;SDS011;11089;49.852;19.700;2023-11-19T00:09:19;37.10;;;15.60;;
21848;SDS011;11089;49.852;19.700;2023-11-19T00:12:19;41.17;;;17.23;;
21848;SDS011;11089;49.852;19.700;2023-11-19T00:15:20;39.20;;;15.50;;
21848;SDS011;11089;49.852;19.700;2023-11-19T00:18:21;34.85;;;14.43;;
21848;SDS011;11089;49.852;19.700;2023-11-19T00:21:22;40.03;;;18.45;;
21848;SDS011;11089;49.852;19.700;2023-11-19T00:24:23;35.15;;;14.88;;
21848;SDS011;11089;49.852;19.700;2023-11-19T00:27:24;38.75;;;16.58;;
21848;SDS011;11089;49.852;19.700;2023-11-19T00:30:26;38.45;;;15.43;;
21848;SDS011;11089;49.852;19.700;2023-11-19T00:33:27;38.50;;;17.27;;
21848;SDS011;11089;49.852;19.700;2023-11-19T00:36:28;36.10;;;15.45;;
21848;SDS011;11089;49.852;19.700;2023-11-19T00:39:29;36.90;;;14.85;;
21848;SDS011;11089;49.852;19.700;2023-11-19T00:42:30;38.40;;;16.85;;
21848;SDS011;11089;49.852;19.700;2023-11-19T00:45:31;38.78;;;15.25;;
21848;SDS011;11089;49.852;19.700;2023-11-19T00:48:31;36.90;;;14.98;;
21848;SDS011;11089;49.852;19.700;2023-11-19T00:51:32;31.88;;;14.15;;
21848;SDS011;11089;49.852;19.700;2023-11-19T00:54:33;35.03;;;14.65;;
21848;SDS011;11089;49.852;19.700;2023-11-19T00:57:34;40.28;;;15.35;;
21848;SDS011;11089;49.852;19.700;2023-11-19T01:00:35;37.53;;;15.48;;
21848;SDS011;11089;49.852;19.700;2023-11-19T01:03:36;35.70;;;15.52;;
21848;SDS011;11089;49.852;19.700;2023-11-19T01:06:37;38.17;;;15.30;;
21848;SDS011;11089;49.852;19.700;2023-11-19T01:09:38;36.05;;;14.77;;
21848;SDS011;11089;49.852;19.700;2023-11-19T01:12:42;34.08;;;15.27;;
21848;SDS011;11089;49.852;19.700;2023-11-19T01:15:42;33.78;;;14.93;;
21848;SDS011;11089;49.852;19.700;2023-11-19T01:18:43;34.00;;;14.63;;
21848;SDS011;11089;49.852;19.700;2023-11-19T01:21:45;33.08;;;13.77;;
21848;SDS011;11089;49.852;19.700;2023-11-19T01:24:46;32.17;;;13.98;;
21848;SDS011;11089;49.852;19.700;2023-11-19T01:27:47;34.30;;;14.10;;
21848;SDS011;11089;49.852;19.700;2023-11-19T01:30:50;37.40;;;15.50;;
21848;SDS011;11089;49.852;19.700;2023-11-19T01:33:51;38.78;;;15.32;;
21848;SDS011;11089;49.852;19.700;2023-11-19T01:36:52;39.53;;;15.45;;
21848;SDS011;11089;49.852;19.700;2023-11-19T01:39:53;38.60;;;14.48;;
21848;SDS011;11089;49.852;19.700;2023-11-19T01:42:54;36.45;;;15.43;;
21848;SDS011;11089;49.852;19.700;2023-11-19T01:45:55;35.22;;;14.98;;
21848;SDS011;11089;49.852;19.700;2023-11-19T01:48:57;37.13;;;15.30;;
21848;SDS011;11089;49.852;19.700;2023-11-19T01:51:58;41.08;;;16.67;;
21848;SDS011;11089;49.852;19.700;2023-11-19T01:55:00;40.53;;;16.05;;
21848;SDS011;11089;49.852;19.700;2023-11-19T01:58:01;34.67;;;15.13;;
21848;SDS011;11089;49.852;19.700;2023-11-19T02:01:02;37.25;;;16.30;;
21848;SDS011;11089;49.852;19.700;2023-11-19T02:04:04;40.15;;;15.85;;
21848;SDS011;11089;49.852;19.700;2023-11-19T02:07:06;40.75;;;16.35;;
21848;SDS011;11089;49.852;19.700;2023-11-19T02:10:08;43.40;;;16.50;;
21848;SDS011;11089;49.852;19.700;2023-11-19T02:13:13;40.38;;;15.38;;
21848;SDS011;11089;49.852;19.700;2023-11-19T02:16:14;40.42;;;17.92;;
21848;SDS011;11089;49.852;19.700;2023-11-19T02:19:15;36.05;;;15.88;;
21848;SDS011;11089;49.852;19.700;2023-11-19T02:22:15;37.03;;;15.38;;
21848;SDS011;11089;49.852;19.700;2023-11-19T02:25:28;40.97;;;16.73;;
21848;SDS011;11089;49.852;19.700;2023-11-19T02:28:33;34.97;;;15.10;;
21848;SDS011;11089;49.852;19.700;2023-11-19T02:31:35;44.75;;;16.65;;
21848;SDS011;11089;49.852;19.700;2023-11-19T02:34:36;41.67;;;16.00;;
21848;SDS011;11089;49.852;19.700;2023-11-19T02:37:38;35.08;;;16.70;;
21848;SDS011;11089;49.852;19.700;2023-11-19T02:40:39;40.22;;;16.92;;
21848;SDS011;11089;49.852;19.700;2023-11-19T02:43:40;43.00;;;16.45;;
21848;SDS011;11089;49.852;19.700;2023-11-19T02:46:41;40.75;;;16.48;;
21848;SDS011;11089;49.852;19.700;2023-11-19T02:49:42;38.00;;;15.50;;
21848;SDS011;11089;49.852;19.700;2023-11-19T02:52:44;42.55;;;16.27;;
21848;SDS011;11089;49.852;19.700;2023-11-19T02:55:46;39.75;;;17.05;;
21848;SDS011;11089;49.852;19.700;2023-11-19T02:58:50;40.10;;;15.13;;
21848;SDS011;11089;49.852;19.700;2023-11-19T03:01:51;37.83;;;14.68;;
21848;SDS011;11089;49.852;19.700;2023-11-19T03:04:52;42.50;;;16.63;;
21848;SDS011;11089;49.852;19.700;2023-11-19T03:07:53;41.95;;;15.70;;
21848;SDS011;11089;49.852;19.700;2023-11-19T03:10:54;40.17;;;16.70;;
21848;SDS011;11089;49.852;19.700;2023-11-19T03:13:55;43.53;;;15.60;;
21848;SDS011;11089;49.852;19.700;2023-11-19T03:16:56;41.83;;;16.63;;
21848;SDS011;11089;49.852;19.700;2023-11-19T03:19:57;44.15;;;17.90;;
21848;SDS011;11089;49.852;19.700;2023-11-19T03:22:57;38.72;;;16.58;;
21848;SDS011;11089;49.852;19.700;2023-11-19T03:25:58;41.20;;;16.67;;
21848;SDS011;11089;49.852;19.700;2023-11-19T03:29:01;41.22;;;16.40;;
21848;SDS011;11089;49.852;19.700;2023-11-19T03:32:02;40.03;;;16.02;;
21848;SDS011;11089;49.852;19.700;2023-11-19T03:35:04;41.42;;;16.50;;
21848;SDS011;11089;49.852;19.700;2023-11-19T03:38:09;38.00;;;15.25;;
21848;SDS011;11089;49.852;19.700;2023-11-19T03:41:10;39.65;;;15.15;;
21848;SDS011;11089;49.852;19.700;2023-11-19T03:44:12;39.63;;;15.02;;
21848;SDS011;11089;49.852;19.700;2023-11-19T03:47:13;35.50;;;15.27;;
21848;SDS011;11089;49.852;19.700;2023-11-19T03:50:14;41.47;;;15.40;;
21848;SDS011;11089;49.852;19.700;2023-11-19T03:53:15;42.40;;;16.38;;
21848;SDS011;11089;49.852;19.700;2023-11-19T03:56:16;41.95;;;15.98;;
21848;SDS011;11089;49.852;19.700;2023-11-19T03:59:17;41.17;;;16.20;;
21848;SDS011;11089;49.852;19.700;2023-11-19T04:02:20;44.63;;;17.05;;
21848;SDS011;11089;49.852;19.700;2023-11-19T04:05:21;45.28;;;17.23;;
21848;SDS011;11089;49.852;19.700;2023-11-19T04:08:22;46.42;;;17.50;;
21848;SDS011;11089;49.852;19.700;2023-11-19T04:11:23;38.45;;;15.07;;
21848;SDS011;11089;49.852;19.700;2023-11-19T04:14:24;40.80;;;16.10;;
21848;SDS011;11089;49.852;19.700;2023-11-19T04:17:25;42.78;;;16.63;;
21848;SDS011;11089;49.852;19.700;2023-11-19T04:20:26;41.70;;;16.52;;
21848;SDS011;11089;49.852;19.700;2023-11-19T04:23:26;42.75;;;17.35;;
21848;SDS011;11089;49.852;19.700;2023-11-19T04:26:27;49.90;;;19.58;;
21848;SDS011;11089;49.852;19.700;2023-11-19T04:29:29;47.78;;;18.50;;
21848;SDS011;11089;49.852;19.700;2023-11-19T04:32:31;49.78;;;17.70;;
21848;SDS011;11089;49.852;19.700;2023-11-19T04:35:31;50.05;;;18.75;;
21848;SDS011;11089;49.852;19.700;2023-11-19T04:38:32;51.63;;;19.83;;
21848;SDS011;11089;49.852;19.700;2023-11-19T04:41:33;54.45;;;20.15;;
21848;SDS011;11089;49.852;19.700;2023-11-19T04:44:34;46.83;;;17.45;;
21848;SDS011;11089;49.852;19.700;2023-11-19T04:47:35;54.30;;;21.90;;
21848;SDS011;11089;49.852;19.700;2023-11-19T04:50:36;54.25;;;20.90;;
21848;SDS011;11089;49.852;19.700;2023-11-19T04:53:37;51.03;;;18.70;;
21848;SDS011;11089;49.852;19.700;2023-11-19T04:56:38;46.28;;;18.45;;
21848;SDS011;11089;49.852;19.700;2023-11-19T04:59:40;47.20;;;18.08;;
21848;SDS011;11089;49.852;19.700;2023-11-19T05:02:41;46.58;;;17.58;;
21848;SDS011;11089;49.852;19.700;2023-11-19T05:05:42;46.80;;;18.60;;
21848;SDS011;11089;49.852;19.700;2023-11-19T05:08:43;47.20;;;17.55;;
21848;SDS011;11089;49.852;19.700;2023-11-19T05:11:44;42.88;;;16.67;;
21848;SDS011;11089;49.852;19.700;2023-11-19T05:14:45;48.25;;;17.77;;
21848;SDS011;11089;49.852;19.700;2023-11-19T05:17:49;48.80;;;19.10;;
21848;SDS011;11089;49.852;19.700;2023-11-19T05:20:50;47.22;;;17.65;;
21848;SDS011;11089;49.852;19.700;2023-11-19T05:23:51;41.60;;;16.45;;
21848;SDS011;11089;49.852;19.700;2023-11-19T05:26:52;46.90;;;16.60;;
21848;SDS011;11089;49.852;19.700;2023-11-19T05:29:53;45.63;;;16.85;;
21848;SDS011;11089;49.852;19.700;2023-11-19T05:32:53;55.28;;;18.48;;
21848;SDS011;11089;49.852;19.700;2023-11-19T05:35:54;51.60;;;18.45;;
21848;SDS011;11089;49.852;19.700;2023-11-19T05:38:55;51.40;;;17.33;;
21848;SDS011;11089;49.852;19.700;2023-11-19T05:41:56;46.95;;;17.33;;
21848;SDS011;11089;49.852;19.700;2023-11-19T05:44:57;45.88;;;16.55;;
21848;SDS011;11089;49.852;19.700;2023-11-19T05:47:58;45.25;;;16.15;;
21848;SDS011;11089;49.852;19.700;2023-11-19T05:50:59;44.22;;;17.27;;
21848;SDS011;11089;49.852;19.700;2023-11-19T05:54:00;45.50;;;17.77;;
21848;SDS011;11089;49.852;19.700;2023-11-19T05:57:01;44.53;;;16.27;;
21848;SDS011;11089;49.852;19.700;2023-11-19T06:00:02;47.00;;;18.25;;
21848;SDS011;11089;49.852;19.700;2023-11-19T06:03:09;47.75;;;17.50;;
21848;SDS011;11089;49.852;19.700;2023-11-19T06:06:10;53.22;;;19.00;;
21848;SDS011;11089;49.852;19.700;2023-11-19T06:09:12;56.58;;;17.92;;
21848;SDS011;11089;49.852;19.700;2023-11-19T06:12:13;47.25;;;17.23;;
21848;SDS011;11089;49.852;19.700;2023-11-19T06:15:14;45.08;;;17.23;;
21848;SDS011;11089;49.852;19.700;2023-11-19T06:18:15;47.28;;;17.73;;
21848;SDS011;11089;49.852;19.700;2023-11-19T06:21:16;44.03;;;15.52;;
21848;SDS011;11089;49.852;19.700;2023-11-19T06:24:16;44.53;;;16.73;;
21848;SDS011;11089;49.852;19.700;2023-11-19T06:27:18;38.83;;;16.00;;
21848;SDS011;11089;49.852;19.700;2023-11-19T06:30:19;38.67;;;14.45;;
21848;SDS011;11089;49.852;19.700;2023-11-19T06:33:20;33.65;;;13.90;;
21848;SDS011;11089;49.852;19.700;2023-11-19T06:36:22;35.13;;;13.95;;
21848;SDS011;11089;49.852;19.700;2023-11-19T06:39:23;34.67;;;13.85;;
21848;SDS011;11089;49.852;19.700;2023-11-19T06:42:24;28.77;;;13.38;;
21848;SDS011;11089;49.852;19.700;2023-11-19T06:45:25;29.92;;;13.13;;
21848;SDS011;11089;49.852;19.700;2023-11-19T06:48:25;27.75;;;12.05;;
21848;SDS011;11089;49.852;19.700;2023-11-19T06:51:26;26.23;;;10.57;;
21848;SDS011;11089;49.852;19.700;2023-11-19T06:54:27;22.45;;;10.10;;
21848;SDS011;11089;49.852;19.700;2023-11-19T06:57:28;21.63;;;9.30;;
21848;SDS011;11089;49.852;19.700;2023-11-19T07:00:29;21.92;;;9.32;;
21848;SDS011;11089;49.852;19.700;2023-11-19T07:03:32;21.40;;;9.23;;
21848;SDS011;11089;49.852;19.700;2023-11-19T07:06:35;22.20;;;9.57;;
21848;SDS011;11089;49.852;19.700;2023-11-19T07:09:36;22.20;;;9.82;;
21848;SDS011;11089;49.852;19.700;2023-11-19T07:12:38;21.00;;;9.68;;
21848;SDS011;11089;49.852;19.700;2023-11-19T07:15:39;24.02;;;10.32;;
21848;SDS011;11089;49.852;19.700;2023-11-19T07:18:40;23.20;;;10.75;;
21848;SDS011;11089;49.852;19.700;2023-11-19T07:21:42;23.55;;;11.57;;
21848;SDS011;11089;49.852;19.700;2023-11-19T07:24:47;23.23;;;10.60;;
21848;SDS011;11089;49.852;19.700;2023-11-19T07:27:47;25.17;;;11.70;;
21848;SDS011;11089;49.852;19.700;2023-11-19T07:30:49;27.25;;;11.50;;
21848;SDS011;11089;49.852;19.700;2023-11-19T07:33:50;30.52;;;12.48;;
21848;SDS011;11089;49.852;19.700;2023-11-19T07:36:51;29.42;;;13.48;;
21848;SDS011;11089;49.852;19.700;2023-11-19T07:39:52;32.63;;;13.73;;
21848;SDS011;11089;49.852;19.700;2023-11-19T07:42:53;29.17;;;14.00;;
21848;SDS011;11089;49.852;19.700;2023-11-19T07:45:54;28.45;;;12.73;;
21848;SDS011;11089;49.852;19.700;2023-11-19T07:48:55;29.30;;;13.85;;
21848;SDS011;11089;49.852;19.700;2023-11-19T07:51:56;33.50;;;15.15;;
21848;SDS011;11089;49.852;19.700;2023-11-19T07:54:57;40.70;;;18.13;;
21848;SDS011;11089;49.852;19.700;2023-11-19T07:57:58;40.13;;;17.95;;
21848;SDS011;11089;49.852;19.700;2023-11-19T08:00:59;38.25;;;17.23;;
21848;SDS011;11089;49.852;19.700;2023-11-19T08:04:02;26.73;;;13.00;;
21848;SDS011;11089;49.852;19.700;2023-11-19T08:07:03;27.23;;;12.43;;
21848;SDS011;11089;49.852;19.700;2023-11-19T08:10:04;24.25;;;11.85;;
21848;SDS011;11089;49.852;19.700;2023-11-19T08:13:05;23.30;;;10.50;;
21848;SDS011;11089;49.852;19.700;2023-11-19T08:16:07;25.88;;;11.75;;
21848;SDS011;11089;49.852;19.700;2023-11-19T08:19:09;24.77;;;10.85;;
21848;SDS011;11089;49.852;19.700;2023-11-19T08:22:10;27.63;;;11.80;;
21848;SDS011;11089;49.852;19.700;2023-11-19T08:25:11;27.40;;;12.98;;
21848;SDS011;11089;49.852;19.700;2023-11-19T08:28:13;30.73;;;12.40;;
21848;SDS011;11089;49.852;19.700;2023-11-19T08:31:14;24.48;;;11.85;;
21848;SDS011;11089;49.852;19.700;2023-11-19T08:34:15;27.75;;;12.75;;
21848;SDS011;11089;49.852;19.700;2023-11-19T08:37:16;24.58;;;11.70;;
21848;SDS011;11089;49.852;19.700;2023-11-19T08:40:20;20.02;;;10.32;;
21848;SDS011;11089;49.852;19.700;2023-11-19T08:43:21;26.35;;;12.13;;
21848;SDS011;11089;49.852;19.700;2023-11-19T08:46:24;24.73;;;11.23;;
21848;SDS011;11089;49.852;19.700;2023-11-19T08:49:26;22.90;;;10.05;;
21848;SDS011;11089;49.852;19.700;2023-11-19T08:52:27;21.98;;;10.23;;
21848;SDS011;11089;49.852;19.700;2023-11-19T08:55:28;25.88;;;11.35;;
21848;SDS011;11089;49.852;19.700;2023-11-19T08:58:29;20.55;;;9.55;;
21848;SDS011;11089;49.852;19.700;2023-11-19T09:01:30;23.27;;;10.38;;
21848;SDS011;11089;49.852;19.700;2023-11-19T09:04:31;16.25;;;8.70;;
21848;SDS011;11089;49.852;19.700;2023-11-19T09:07:33;16.63;;;7.53;;
21848;SDS011;11089;49.852;19.700;2023-11-19T09:10:34;18.75;;;8.40;;
21848;SDS011;11089;49.852;19.700;2023-11-19T09:13:35;20.52;;;9.02;;
21848;SDS011;11089;49.852;19.700;2023-11-19T09:16:36;21.27;;;9.90;;
21848;SDS011;11089;49.852;19.700;2023-11-19T09:19:37;20.17;;;9.13;;
21848;SDS011;11089;49.852;19.700;2023-11-19T09:22:38;19.17;;;9.52;;
21848;SDS011;11089;49.852;19.700;2023-11-19T09:25:39;19.65;;;9.88;;
21848;SDS011;11089;49.852;19.700;2023-11-19T09:28:40;21.00;;;9.57;;
21848;SDS011;11089;49.852;19.700;2023-11-19T09:31:41;21.55;;;9.82;;
21848;SDS011;11089;49.852;19.700;2023-11-19T09:34:42;21.88;;;9.02;;
21848;SDS011;11089;49.852;19.700;2023-11-19T09:37:43;21.35;;;9.35;;
21848;SDS011;11089;49.852;19.700;2023-11-19T09:40:44;21.20;;;9.20;;
21848;SDS011;11089;49.852;19.700;2023-11-19T09:43:45;21.00;;;9.88;;
21848;SDS011;11089;49.852;19.700;2023-11-19T09:46:46;22.70;;;10.52;;
21848;SDS011;11089;49.852;19.700;2023-11-19T09:49:49;26.33;;;10.93;;
21848;SDS011;11089;49.852;19.700;2023-11-19T09:52:50;22.00;;;10.45;;
21848;SDS011;11089;49.852;19.700;2023-11-19T09:55:51;25.67;;;11.02;;
21848;SDS011;11089;49.852;19.700;2023-11-19T09:58:53;24.45;;;10.10;;
21848;SDS011;11089;49.852;19.700;2023-11-19T10:01:55;20.02;;;9.00;;
21848;SDS011;11089;49.852;19.700;2023-11-19T10:04:57;21.10;;;9.90;;
21848;SDS011;11089;49.852;19.700;2023-11-19T10:08:01;18.95;;;8.85;;
21848;SDS011;11089;49.852;19.700;2023-11-19T10:11:03;23.45;;;9.75;;
21848;SDS011;11089;49.852;19.700;2023-11-19T10:14:04;20.38;;;9.75;;
21848;SDS011;11089;49.852;19.700;2023-11-19T10:17:07;20.27;;;9.85;;
21848;SDS011;11089;49.852;19.700;2023-11-19T10:20:08;20.15;;;10.43;;
21848;SDS011;11089;49.852;19.700;2023-11-19T10:23:10;22.25;;;10.25;;
21848;SDS011;11089;49.852;19.700;2023-11-19T10:26:12;20.13;;;9.63;;
21848;SDS011;11089;49.852;19.700;2023-11-19T10:29:13;19.15;;;9.52;;
21848;SDS011;11089;49.852;19.700;2023-11-19T10:32:14;20.45;;;10.23;;
21848;SDS011;11089;49.852;19.700;2023-11-19T10:35:15;22.00;;;9.95;;
21848;SDS011;11089;49.852;19.700;2023-11-19T10:38:16;17.25;;;8.50;;
21848;SDS011;11089;49.852;19.700;2023-11-19T10:41:26;19.50;;;9.48;;
21848;SDS011;11089;49.852;19.700;2023-11-19T10:44:34;19.08;;;9.18;;
21848;SDS011;11089;49.852;19.700;2023-11-19T10:47:36;20.58;;;10.00;;
21848;SDS011;11089;49.852;19.700;2023-11-19T10:50:40;22.10;;;10.25;;
21848;SDS011;11089;49.852;19.700;2023-11-19T10:53:41;18.55;;;9.60;;
21848;SDS011;11089;49.852;19.700;2023-11-19T10:56:45;19.55;;;9.23;;
21848;SDS011;11089;49.852;19.700;2023-11-19T10:59:55;23.58;;;10.93;;
21848;SDS011;11089;49.852;19.700;2023-11-19T11:03:01;22.58;;;11.05;;
21848;SDS011;11089;49.852;19.700;2023-11-19T11:06:06;24.08;;;11.68;;
21848;SDS011;11089;49.852;19.700;2023-11-19T11:09:08;25.25;;;11.45;;
21848;SDS011;11089;49.852;19.700;2023-11-19T11:12:12;22.95;;;10.90;;
21848;SDS011;11089;49.852;19.700;2023-11-19T11:15:13;23.00;;;11.30;;
21848;SDS011;11089;49.852;19.700;2023-11-19T11:18:16;24.17;;;11.80;;
21848;SDS011;11089;49.852;19.700;2023-11-19T11:21:20;26.15;;;12.10;;
21848;SDS011;11089;49.852;19.700;2023-11-19T11:24:30;28.98;;;11.95;;
21848;SDS011;11089;49.852;19.700;2023-11-19T11:28:05;27.30;;;11.75;;
21848;SDS011;11089;49.852;19.700;2023-11-19T11:37:34;24.33;;;11.15;;
21848;SDS011;11089;49.852;19.700;2023-11-19T11:41:14;22.95;;;11.38;;
21848;SDS011;11089;49.852;19.700;2023-11-19T11:44:40;26.67;;;12.30;;
21848;SDS011;11089;49.852;19.700;2023-11-19T11:48:12;20.65;;;10.38;;
21848;SDS011;11089;49.852;19.700;2023-11-19T11:51:17;20.20;;;9.15;;
21848;SDS011;11089;49.852;19.700;2023-11-19T11:57:19;15.23;;;8.25;;
21848;SDS011;11089;49.852;19.700;2023-11-19T12:00:27;17.10;;;9.52;;
21848;SDS011;11089;49.852;19.700;2023-11-19T12:03:32;21.38;;;10.48;;
21848;SDS011;11089;49.852;19.700;2023-11-19T12:06:34;19.48;;;9.43;;
21848;SDS011;11089;49.852;19.700;2023-11-19T12:09:36;19.60;;;9.25;;
21848;SDS011;11089;49.852;19.700;2023-11-19T12:12:40;17.73;;;8.52;;
21848;SDS011;11089;49.852;19.700;2023-11-19T12:18:56;21.65;;;10.77;;
21848;SDS011;11089;49.852;19.700;2023-11-19T12:22:10;48.75;;;19.48;;
21848;SDS011;11089;49.852;19.700;2023-11-19T12:25:11;64.25;;;26.17;;
21848;SDS011;11089;49.852;19.700;2023-11-19T12:28:13;45.65;;;21.30;;
21848;SDS011;11089;49.852;19.700;2023-11-19T12:31:17;32.72;;;15.02;;
21848;SDS011;11089;49.852;19.700;2023-11-19T12:34:19;27.05;;;13.65;;
21848;SDS011;11089;49.852;19.700;2023-11-19T12:37:23;23.77;;;11.85;;
21848;SDS011;11089;49.852;19.700;2023-11-19T12:40:24;25.55;;;12.60;;
21848;SDS011;11089;49.852;19.700;2023-11-19T12:43:26;24.15;;;12.18;;
21848;SDS011;11089;49.852;19.700;2023-11-19T12:46:27;20.55;;;11.15;;
21848;SDS011;11089;49.852;19.700;2023-11-19T12:49:27;19.25;;;9.68;;
21848;SDS011;11089;49.852;19.700;2023-11-19T12:52:28;22.83;;;11.02;;
21848;SDS011;11089;49.852;19.700;2023-11-19T12:55:30;19.90;;;9.75;;
21848;SDS011;11089;49.852;19.700;2023-11-19T12:58:33;21.85;;;10.32;;
21848;SDS011;11089;49.852;19.700;2023-11-19T13:01:36;19.70;;;9.48;;
21848;SDS011;11089;49.852;19.700;2023-11-19T13:04:38;20.55;;;9.80;;
21848;SDS011;11089;49.852;19.700;2023-11-19T13:07:39;16.27;;;8.40;;
21848;SDS011;11089;49.852;19.700;2023-11-19T13:10:50;17.77;;;8.07;;
21848;SDS011;11089;49.852;19.700;2023-11-19T13:13:55;15.95;;;7.57;;
21848;SDS011;11089;49.852;19.700;2023-11-19T13:16:59;12.50;;;6.88;;
21848;SDS011;11089;49.852;19.700;2023-11-19T13:20:00;12.60;;;6.82;;
21848;SDS011;11089;49.852;19.700;2023-11-19T13:23:02;13.77;;;7.30;;
21848;SDS011;11089;49.852;19.700;2023-11-19T13:26:05;15.48;;;7.43;;
21848;SDS011;11089;49.852;19.700;2023-11-19T13:29:06;16.83;;;7.50;;
21848;SDS011;11089;49.852;19.700;2023-11-19T13:32:07;19.30;;;8.65;;
21848;SDS011;11089;49.852;19.700;2023-11-19T13:35:08;17.75;;;8.68;;
21848;SDS011;11089;49.852;19.700;2023-11-19T13:38:09;18.08;;;9.10;;
21848;SDS011;11089;49.852;19.700;2023-11-19T13:41:10;17.55;;;8.63;;
21848;SDS011;11089;49.852;19.700;2023-11-19T13:44:12;19.27;;;8.40;;
21848;SDS011;11089;49.852;19.700;2023-11-19T13:47:13;17.50;;;8.48;;
21848;SDS011;11089;49.852;19.700;2023-11-19T13:50:14;24.42;;;9.18;;
21848;SDS011;11089;49.852;19.700;2023-11-19T13:53:16;22.50;;;9.88;;
21848;SDS011;11089;49.852;19.700;2023-11-19T13:56:17;22.20;;;9.82;;
21848;SDS011;11089;49.852;19.700;2023-11-19T13:59:18;24.00;;;8.88;;
21848;SDS011;11089;49.852;19.700;2023-11-19T14:02:19;20.23;;;9.43;;
21848;SDS011;11089;49.852;19.700;2023-11-19T14:05:20;18.20;;;8.45;;
21848;SDS011;11089;49.852;19.700;2023-11-19T14:08:21;19.83;;;8.35;;
21848;SDS011;11089;49.852;19.700;2023-11-19T14:11:22;16.80;;;6.95;;
21848;SDS011;11089;49.852;19.700;2023-11-19T14:14:23;16.70;;;7.05;;
21848;SDS011;11089;49.852;19.700;2023-11-19T14:17:24;27.17;;;10.25;;
21848;SDS011;11089;49.852;19.700;2023-11-19T14:20:25;20.63;;;8.23;;
21848;SDS011;11089;49.852;19.700;2023-11-19T14:23:26;15.75;;;6.60;;
21848;SDS011;11089;49.852;19.700;2023-11-19T14:26:27;16.10;;;6.53;;
21848;SDS011;11089;49.852;19.700;2023-11-19T14:29:29;15.48;;;6.72;;
21848;SDS011;11089;49.852;19.700;2023-11-19T14:32:30;21.50;;;8.18;;
21848;SDS011;11089;49.852;19.700;2023-11-19T14:35:31;14.95;;;6.28;;
21848;SDS011;11089;49.852;19.700;2023-11-19T14:38:33;10.45;;;5.05;;
21848;SDS011;11089;49.852;19.700;2023-11-19T14:41:34;11.65;;;5.57;;
21848;SDS011;11089;49.852;19.700;2023-11-19T14:44:35;10.00;;;5.20;;
21848;SDS011;11089;49.852;19.700;2023-11-19T14:47:36;13.02;;;5.53;;
21848;SDS011;11089;49.852;19.700;2023-11-19T14:50:37;18.35;;;7.20;;
21848;SDS011;11089;49.852;19.700;2023-11-19T14:53:38;13.05;;;5.32;;
21848;SDS011;11089;49.852;19.700;2023-11-19T14:56:38;17.65;;;6.13;;
21848;SDS011;11089;49.852;19.700;2023-11-19T14:59:39;10.20;;;4.50;;
21848;SDS011;11089;49.852;19.700;2023-11-19T15:02:41;14.77;;;5.95;;
21848;SDS011;11089;49.852;19.700;2023-11-19T15:05:42;13.63;;;5.03;;
21848;SDS011;11089;49.852;19.700;2023-11-19T15:08:43;13.27;;;5.93;;
21848;SDS011;11089;49.852;19.700;2023-11-19T15:11:45;18.73;;;7.90;;
21848;SDS011;11089;49.852;19.700;2023-11-19T15:14:46;10.35;;;5.00;;
21848;SDS011;11089;49.852;19.700;2023-11-19T15:17:47;13.40;;;6.05;;
21848;SDS011;11089;49.852;19.700;2023-11-19T15:20:48;13.07;;;5.45;;
21848;SDS011;11089;49.852;19.700;2023-11-19T15:23:49;11.80;;;5.22;;
21848;SDS011;11089;49.852;19.700;2023-11-19T15:26:49;10.73;;;5.32;;
21848;SDS011;11089;49.852;19.700;2023-11-19T15:29:50;12.63;;;5.50;;
21848;SDS011;11089;49.852;19.700;2023-11-19T15:32:52;12.02;;;5.30;;
21848;SDS011;11089;49.852;19.700;2023-11-19T15:35:55;13.68;;;4.68;;
21848;SDS011;11089;49.852;19.700;2023-11-19T15:38:55;12.38;;;5.32;;
21848;SDS011;11089;49.852;19.700;2023-11-19T15:41:56;13.23;;;5.22;;
21848;SDS011;11089;49.852;19.700;2023-11-19T15:44:59;12.60;;;5.53;;
21848;SDS011;11089;49.852;19.700;2023-11-19T15:48:00;11.50;;;5.38;;
21848;SDS011;11089;49.852;19.700;2023-11-19T15:51:01;13.70;;;5.43;;
21848;SDS011;11089;49.852;19.700;2023-11-19T15:54:03;10.07;;;4.82;;
21848;SDS011;11089;49.852;19.700;2023-11-19T15:57:05;12.77;;;5.28;;
21848;SDS011;11089;49.852;19.700;2023-11-19T16:00:06;11.20;;;4.88;;
21848;SDS011;11089;49.852;19.700;2023-11-19T16:03:10;10.38;;;4.28;;
21848;SDS011;11089;49.852;19.700;2023-11-19T16:06:12;9.93;;;4.75;;
21848;SDS011;11089;49.852;19.700;2023-11-19T16:09:13;9.70;;;4.13;;
21848;SDS011;11089;49.852;19.700;2023-11-19T16:12:15;15.85;;;6.15;;
21848;SDS011;11089;49.852;19.700;2023-11-19T16:15:16;15.90;;;6.68;;
21848;SDS011;11089;49.852;19.700;2023-11-19T16:18:16;13.85;;;6.15;;
21848;SDS011;11089;49.852;19.700;2023-11-19T16:21:17;11.75;;;5.22;;
21848;SDS011;11089;49.852;19.700;2023-11-19T16:24:18;12.25;;;5.35;;
21848;SDS011;11089;49.852;19.700;2023-11-19T16:27:19;12.25;;;4.75;;
21848;SDS011;11089;49.852;19.700;2023-11-19T16:30:20;8.68;;;4.10;;
21848;SDS011;11089;49.852;19.700;2023-11-19T16:33:22;9.18;;;4.38;;
21848;SDS011;11089;49.852;19.700;2023-11-19T16:36:23;9.95;;;4.72;;
21848;SDS011;11089;49.852;19.700;2023-11-19T16:39:24;9.32;;;5.13;;
21848;SDS011;11089;49.852;19.700;2023-11-19T16:42:24;13.30;;;5.53;;
21848;SDS011;11089;49.852;19.700;2023-11-19T16:45:26;14.57;;;5.20;;
21848;SDS011;11089;49.852;19.700;2023-11-19T16:48:26;11.98;;;5.60;;
21848;SDS011;11089;49.852;19.700;2023-11-19T16:51:28;10.43;;;5.45;;
21848;SDS011;11089;49.852;19.700;2023-11-19T16:54:29;9.48;;;4.32;;
21848;SDS011;11089;49.852;19.700;2023-11-19T16:57:37;11.32;;;4.50;;
21848;SDS011;11089;49.852;19.700;2023-11-19T17:00:39;9.40;;;4.45;;
21848;SDS011;11089;49.852;19.700;2023-11-19T17:03:40;9.52;;;3.92;;
21848;SDS011;11089;49.852;19.700;2023-11-19T17:06:41;9.10;;;4.40;;
21848;SDS011;11089;49.852;19.700;2023-11-19T17:09:42;10.20;;;5.03;;
21848;SDS011;11089;49.852;19.700;2023-11-19T17:12:43;10.55;;;4.55;;
21848;SDS011;11089;49.852;19.700;2023-11-19T17:15:44;12.80;;;5.88;;
21848;SDS011;11089;49.852;19.700;2023-11-19T17:18:45;12.10;;;5.50;;
21848;SDS011;11089;49.852;19.700;2023-11-19T17:21:46;12.27;;;4.63;;
21848;SDS011;11089;49.852;19.700;2023-11-19T17:24:47;10.50;;;4.00;;
21848;SDS011;11089;49.852;19.700;2023-11-19T17:27:48;11.18;;;4.43;;
21848;SDS011;11089;49.852;19.700;2023-11-19T17:30:49;10.25;;;4.55;;
21848;SDS011;11089;49.852;19.700;2023-11-19T17:33:50;12.18;;;5.18;;
21848;SDS011;11089;49.852;19.700;2023-11-19T17:36:51;13.85;;;5.65;;
21848;SDS011;11089;49.852;19.700;2023-11-19T17:39:52;13.68;;;5.15;;
21848;SDS011;11089;49.852;19.700;2023-11-19T17:42:53;11.95;;;5.05;;
21848;SDS011;11089;49.852;19.700;2023-11-19T17:45:55;13.07;;;4.20;;